createdAt,value
2018-05-08T00:01:47.823Z,10.87
2018-05-08T00:04:16.664Z,10.93
2018-05-08T00:06:45.517Z,10.90
2018-05-08T00:09:14.369Z,12.17
2018-05-08T00:11:43.211Z,11.40
2018-05-08T00:14:12.059Z,11.43
2018-05-08T00:16:40.915Z,13.47
2018-05-08T00:19:09.758Z,11.87
2018-05-08T00:21:38.607Z,11.83
2018-05-08T00:24:07.438Z,10.37
2018-05-08T00:26:36.374Z,11.37
2018-05-08T00:29:05.211Z,11.23
2018-05-08T00:31:34.075Z,11.03
2018-05-08T00:34:02.941Z,11.27
2018-05-08T00:36:32.627Z,10.77
2018-05-08T00:39:01.460Z,11.47
2018-05-08T00:41:31.098Z,10.77
2018-05-08T00:44:01.100Z,10.60
2018-05-08T00:46:30.748Z,10.20
2018-05-08T00:49:00.926Z,10.80
2018-05-08T00:51:30.767Z,8.67
2018-05-08T00:53:59.617Z,9.10
2018-05-08T00:56:28.465Z,10.60
2018-05-08T00:58:57.351Z,9.93
2018-05-08T01:01:26.197Z,9.90
2018-05-08T01:03:55.075Z,8.83
2018-05-08T01:06:23.926Z,8.27
2018-05-08T01:08:52.765Z,7.80
2018-05-08T01:11:21.601Z,7.63
2018-05-08T01:13:50.462Z,7.90
2018-05-08T01:16:19.347Z,7.53
2018-05-08T01:18:48.201Z,7.60
2018-05-08T01:21:17.542Z,7.50
2018-05-08T01:23:46.408Z,8.10
2018-05-08T01:26:15.242Z,7.93
2018-05-08T01:28:44.107Z,7.77
2018-05-08T01:31:12.957Z,7.50
2018-05-08T01:33:41.787Z,7.63
2018-05-08T01:36:10.638Z,8.33
2018-05-08T01:38:39.483Z,8.33
2018-05-08T01:41:08.387Z,8.33
2018-05-08T01:43:37.226Z,9.43
2018-05-08T01:46:06.110Z,10.07
2018-05-08T01:48:34.949Z,8.80
2018-05-08T01:51:03.793Z,8.20
2018-05-08T01:53:32.663Z,8.33
2018-05-08T01:56:01.520Z,8.80
2018-05-08T01:58:30.402Z,9.23
2018-05-08T02:01:00.970Z,9.20
2018-05-08T02:03:29.830Z,8.70
2018-05-08T02:05:58.682Z,8.80
2018-05-08T02:08:28.528Z,8.67
2018-05-08T02:10:57.388Z,9.03
2018-05-08T02:13:26.207Z,8.33
2018-05-08T02:15:55.122Z,9.97
2018-05-08T02:18:24.018Z,9.43
2018-05-08T02:20:52.842Z,9.70
2018-05-08T02:23:21.724Z,9.30
2018-05-08T02:25:50.592Z,8.73
2018-05-08T02:28:19.525Z,9.33
2018-05-08T02:30:48.404Z,9.13
2018-05-08T02:33:17.255Z,9.07
2018-05-08T02:35:46.104Z,9.73
2018-05-08T02:38:14.976Z,10.10
2018-05-08T02:40:43.813Z,9.47
2018-05-08T02:43:12.665Z,10.33
2018-05-08T02:45:41.591Z,8.70
2018-05-08T02:48:10.457Z,9.03
2018-05-08T02:50:39.287Z,9.07
2018-05-08T02:53:08.147Z,9.33
2018-05-08T02:55:36.987Z,10.07
2018-05-08T02:58:05.842Z,9.57
2018-05-08T03:00:34.739Z,10.33
2018-05-08T03:03:03.593Z,10.63
2018-05-08T03:05:32.460Z,9.97
2018-05-08T03:08:01.351Z,9.73
2018-05-08T03:10:30.343Z,10.20
2018-05-08T03:12:59.203Z,10.43
2018-05-08T03:15:28.086Z,9.80
2018-05-08T03:17:56.920Z,10.53
2018-05-08T03:20:25.790Z,10.03
2018-05-08T03:22:54.630Z,11.10
2018-05-08T03:25:23.478Z,11.13
2018-05-08T03:27:52.358Z,9.80
2018-05-08T03:30:21.227Z,10.80
2018-05-08T03:32:50.098Z,11.03
2018-05-08T03:35:19.251Z,9.87
2018-05-08T03:37:48.116Z,9.27
2018-05-08T03:40:16.959Z,10.17
2018-05-08T03:42:45.813Z,10.00
2018-05-08T03:45:14.972Z,10.03
2018-05-08T03:47:43.844Z,10.20
2018-05-08T03:50:12.683Z,9.40
2018-05-08T03:52:41.543Z,10.57
2018-05-08T03:55:10.421Z,10.97
2018-05-08T03:57:39.271Z,10.90
2018-05-08T04:00:08.105Z,11.07
2018-05-08T04:02:54.781Z,9.77
2018-05-08T04:05:29.409Z,10.60
2018-05-08T04:08:04.165Z,9.67
2018-05-08T04:10:33.044Z,9.67
2018-05-08T04:13:02.792Z,9.93
2018-05-08T04:15:31.704Z,9.13
2018-05-08T04:18:00.543Z,9.67
2018-05-08T04:20:29.406Z,9.13
2018-05-08T04:22:58.257Z,9.23
2018-05-08T04:25:27.110Z,8.97
2018-05-08T04:27:55.995Z,9.60
2018-05-08T04:30:24.850Z,9.70
2018-05-08T04:32:53.692Z,9.27
2018-05-08T04:35:22.569Z,10.30
2018-05-08T04:37:51.418Z,9.43
2018-05-08T04:40:20.292Z,9.63
2018-05-08T04:42:49.157Z,9.60
2018-05-08T04:45:18.191Z,9.63
2018-05-08T04:47:48.437Z,9.90
2018-05-08T04:50:17.674Z,10.17
2018-05-08T04:52:46.518Z,9.03
2018-05-08T04:55:15.432Z,9.50
2018-05-08T04:57:44.274Z,10.30
2018-05-08T05:00:13.133Z,10.13
2018-05-08T05:02:42.053Z,10.67
2018-05-08T05:05:10.868Z,10.73
2018-05-08T05:07:39.698Z,9.63
2018-05-08T05:10:08.564Z,10.80
2018-05-08T05:12:37.421Z,9.87
2018-05-08T05:15:06.284Z,9.63
2018-05-08T05:17:35.135Z,9.70
2018-05-08T05:20:04.009Z,10.83
2018-05-08T05:22:32.854Z,9.90
2018-05-08T05:25:01.723Z,10.23
2018-05-08T05:27:30.581Z,10.70
2018-05-08T05:29:59.435Z,10.17
2018-05-08T05:32:28.284Z,10.40
2018-05-08T05:34:57.115Z,10.70
2018-05-08T05:37:26.845Z,10.37
2018-05-08T05:39:55.725Z,10.67
2018-05-08T05:42:24.574Z,10.80
2018-05-08T05:44:53.461Z,11.10
2018-05-08T05:47:23.113Z,10.80
2018-05-08T05:49:51.955Z,10.43
2018-05-08T05:52:20.797Z,10.10
2018-05-08T05:54:49.629Z,9.27
2018-05-08T05:57:19.087Z,10.47
2018-05-08T05:59:47.938Z,10.10
2018-05-08T06:02:16.823Z,10.00
2018-05-08T06:04:45.668Z,10.17
2018-05-08T06:07:14.553Z,9.87
2018-05-08T06:09:43.413Z,9.70
2018-05-08T06:12:12.259Z,8.63
2018-05-08T06:14:41.176Z,8.53
2018-05-08T06:17:10.049Z,8.57
2018-05-08T06:19:38.885Z,8.40
2018-05-08T06:22:07.715Z,8.13
2018-05-08T06:24:41.679Z,8.23
2018-05-08T06:27:13.478Z,8.20
2018-05-08T06:29:49.052Z,8.60
2018-05-08T06:32:17.895Z,7.87
2018-05-08T06:34:49.432Z,7.80
2018-05-08T06:37:19.611Z,7.83
2018-05-08T06:39:48.474Z,7.23
2018-05-08T06:42:21.478Z,7.70
2018-05-08T06:44:50.329Z,7.10
2018-05-08T06:47:19.178Z,7.20
2018-05-08T06:49:49.004Z,6.83
2018-05-08T06:52:19.594Z,6.90
2018-05-08T06:54:48.495Z,6.87
2018-05-08T06:57:17.330Z,7.07
2018-05-08T06:59:46.177Z,7.03
2018-05-08T07:02:15.011Z,6.73
2018-05-08T07:04:43.862Z,6.90
2018-05-08T07:07:12.713Z,6.63
2018-05-08T07:09:41.546Z,7.13
2018-05-08T07:12:10.442Z,6.70
2018-05-08T07:14:40.022Z,6.93
2018-05-08T07:17:08.870Z,6.80
2018-05-08T07:19:41.154Z,6.67
2018-05-08T07:22:09.998Z,6.67
2018-05-08T07:24:38.832Z,6.23
2018-05-08T07:27:07.683Z,6.33
2018-05-08T07:29:36.546Z,6.47
2018-05-08T07:32:05.442Z,6.70
2018-05-08T07:34:34.293Z,6.13
2018-05-08T07:37:03.160Z,6.70
2018-05-08T07:39:32.124Z,6.20
2018-05-08T07:42:01.014Z,5.93
2018-05-08T07:44:30.654Z,5.20
2018-05-08T07:47:02.206Z,5.80
2018-05-08T07:49:31.918Z,5.50
2018-05-08T07:52:00.764Z,5.53
2018-05-08T07:54:29.610Z,5.50
2018-05-08T07:56:58.446Z,5.30
2018-05-08T07:59:27.289Z,5.17
2018-05-08T08:01:56.146Z,4.97
2018-05-08T08:04:25.024Z,4.70
2018-05-08T08:06:53.850Z,4.73
2018-05-08T08:09:22.797Z,4.40
2018-05-08T08:11:51.636Z,5.10
2018-05-08T08:14:20.508Z,4.80
2018-05-08T08:16:49.358Z,4.10
2018-05-08T08:19:18.210Z,4.60
2018-05-08T08:21:47.120Z,4.60
2018-05-08T08:24:15.966Z,4.10
2018-05-08T08:26:44.828Z,4.63
2018-05-08T08:29:14.279Z,4.47
2018-05-08T08:31:43.209Z,4.30
2018-05-08T08:34:12.049Z,4.43
2018-05-08T08:36:40.895Z,4.43
2018-05-08T08:39:09.723Z,4.27
2018-05-08T08:41:39.175Z,4.27
2018-05-08T08:44:08.005Z,3.97
2018-05-08T08:46:37.777Z,4.53
2018-05-08T08:49:06.588Z,4.87
2018-05-08T08:51:35.468Z,4.33
2018-05-08T08:54:04.308Z,4.40
2018-05-08T08:56:33.175Z,4.20
2018-05-08T08:59:02.022Z,3.63
2018-05-08T09:01:30.903Z,4.23
2018-05-08T09:04:00.550Z,3.60
2018-05-08T09:06:29.462Z,3.90
2018-05-08T09:20:08.592Z,3.97
2018-05-08T09:22:37.528Z,3.70
2018-05-08T09:25:06.384Z,3.73
2018-05-08T09:27:35.303Z,3.60
2018-05-08T09:30:04.155Z,3.53
2018-05-08T09:32:33.004Z,3.60
2018-05-08T09:35:01.857Z,4.13
2018-05-08T09:37:30.761Z,4.28
2018-05-08T09:39:59.587Z,3.80
2018-05-08T09:42:28.478Z,3.73
2018-05-08T09:44:58.157Z,3.80
2018-05-08T09:47:27.019Z,3.40
2018-05-08T09:49:55.889Z,3.83
2018-05-08T09:52:24.744Z,3.60
2018-05-08T09:54:53.583Z,3.90
2018-05-08T09:57:22.509Z,3.60
2018-05-08T09:59:51.355Z,3.23
2018-05-08T10:02:20.195Z,3.83
2018-05-08T10:04:49.056Z,3.37
2018-05-08T10:07:18.187Z,3.70
2018-05-08T10:09:47.125Z,3.50
2018-05-08T10:12:15.985Z,3.50
2018-05-08T10:14:44.847Z,3.73
2018-05-08T10:17:13.710Z,3.50
2018-05-08T10:19:42.647Z,3.67
2018-05-08T10:22:11.499Z,3.10
2018-05-08T10:24:40.363Z,2.87
2018-05-08T10:27:09.237Z,3.17
2018-05-08T10:29:38.085Z,3.20
2018-05-08T10:32:06.972Z,3.23
2018-05-08T10:34:35.871Z,3.23
2018-05-08T10:37:04.702Z,3.20
2018-05-08T10:39:33.571Z,3.27
2018-05-08T10:42:02.411Z,4.70
2018-05-08T10:44:31.258Z,3.90
2018-05-08T10:47:00.148Z,4.10
2018-05-08T10:49:28.973Z,3.90
2018-05-08T10:51:57.817Z,3.50
2018-05-08T10:54:26.697Z,2.93
2018-05-08T10:56:55.565Z,2.77
2018-05-08T10:59:24.410Z,4.33
2018-05-08T11:01:53.261Z,2.70
2018-05-08T11:04:22.129Z,3.23
2018-05-08T11:06:51.001Z,2.53
2018-05-08T11:09:20.001Z,2.53
2018-05-08T11:11:48.880Z,2.90
2018-05-08T11:14:17.831Z,2.78
2018-05-08T11:16:46.689Z,2.80
2018-05-08T11:19:15.573Z,10.48
2018-05-08T11:21:44.430Z,2.50
2018-05-08T11:24:13.285Z,2.50
2018-05-08T11:26:42.183Z,2.55
2018-05-08T11:29:11.008Z,2.65
2018-05-08T11:31:39.866Z,2.25
2018-05-08T11:34:08.710Z,2.15
2018-05-08T11:36:37.602Z,2.25
2018-05-08T11:39:06.512Z,2.60
2018-05-08T11:41:35.372Z,1.95
2018-05-08T11:44:04.282Z,2.10
2018-05-08T11:46:33.182Z,2.12
2018-05-08T11:49:02.024Z,1.80
2018-05-08T11:51:30.928Z,2.20
2018-05-08T11:54:00.035Z,2.17
2018-05-08T11:56:28.936Z,2.03
2018-05-08T11:58:57.786Z,2.03
2018-05-08T12:01:26.651Z,2.10
2018-05-08T12:03:55.543Z,1.98
2018-05-08T12:06:24.412Z,1.95
2018-05-08T12:08:54.162Z,2.22
2018-05-08T12:11:23.033Z,2.25
2018-05-08T12:13:51.891Z,2.20
2018-05-08T12:16:20.729Z,2.30
2018-05-08T12:18:49.607Z,2.33
2018-05-08T12:21:18.542Z,2.10
2018-05-08T12:23:47.379Z,2.05
2018-05-08T12:26:16.267Z,1.90
2018-05-08T12:28:45.098Z,2.00
2018-05-08T12:31:13.939Z,2.03
2018-05-08T12:33:42.838Z,2.10
2018-05-08T12:36:11.687Z,1.90
2018-05-08T12:38:40.560Z,2.00
2018-05-08T12:41:09.434Z,1.80
2018-05-08T12:43:38.393Z,2.00
2018-05-08T12:46:07.261Z,2.05
2018-05-08T12:48:36.113Z,2.17
2018-05-08T12:51:05.019Z,1.87
2018-05-08T12:53:33.912Z,1.98
2018-05-08T12:56:02.766Z,1.92
2018-05-08T12:58:31.622Z,2.10
2018-05-08T13:01:00.544Z,1.90
2018-05-08T13:03:29.404Z,2.10
2018-05-08T13:05:58.291Z,1.92
2018-05-08T13:08:27.128Z,2.00
2018-05-08T13:10:56.066Z,1.70
2018-05-08T13:13:24.916Z,2.10
2018-05-08T13:15:53.749Z,1.75
2018-05-08T13:18:23.887Z,2.20
2018-05-08T13:20:52.724Z,2.08
2018-05-08T13:23:21.612Z,2.05
2018-05-08T13:25:50.457Z,2.00
2018-05-08T13:28:19.336Z,2.00
2018-05-08T13:30:48.256Z,1.90
2018-05-08T13:33:17.116Z,1.95
2018-05-08T13:35:45.991Z,2.00
2018-05-08T13:38:14.873Z,2.03
2018-05-08T13:40:43.713Z,2.20
2018-05-08T13:43:12.614Z,2.00
2018-05-08T13:45:41.453Z,1.77
2018-05-08T13:48:10.343Z,1.87
2018-05-08T13:50:40.118Z,1.95
2018-05-08T13:53:08.970Z,2.10
2018-05-08T13:55:37.843Z,2.20
2018-05-08T13:58:07.482Z,2.17
2018-05-08T14:00:36.351Z,2.03
2018-05-08T14:03:05.197Z,1.80
2018-05-08T14:05:34.044Z,2.05
2018-05-08T14:08:02.964Z,1.92
2018-05-08T14:10:31.798Z,2.20
2018-05-08T14:13:00.672Z,2.20
2018-05-08T14:15:29.622Z,2.30
2018-05-08T14:17:58.465Z,2.33
2018-05-08T14:20:27.335Z,2.67
2018-05-08T14:22:56.240Z,2.28
2018-05-08T14:25:25.066Z,1.98
2018-05-08T14:27:53.940Z,2.30
2018-05-08T14:30:22.876Z,2.33
2018-05-08T14:32:51.721Z,2.17
2018-05-08T14:35:20.599Z,2.28
2018-05-08T14:37:49.496Z,2.40
2018-05-08T14:42:52.495Z,2.00
2018-05-08T14:45:21.417Z,2.55
2018-05-08T14:47:50.276Z,2.20
2018-05-08T14:50:19.198Z,2.20
2018-05-08T14:52:48.034Z,2.35
2018-05-08T14:55:17.018Z,2.50
2018-05-08T14:57:47.010Z,2.30
2018-05-08T15:00:15.859Z,2.40
2018-05-08T15:02:44.706Z,2.33
2018-05-08T15:05:13.603Z,2.20
2018-05-08T15:07:42.482Z,2.30
2018-05-08T15:10:11.351Z,2.40
2018-05-08T15:12:40.232Z,1.90
2018-05-08T15:15:09.083Z,2.28
2018-05-08T15:17:37.946Z,2.25
2018-05-08T15:20:06.839Z,2.20
2018-05-08T15:22:35.949Z,2.00
2018-05-08T15:25:06.514Z,2.20
2018-05-08T15:27:35.445Z,2.42
2018-05-08T15:30:04.350Z,2.10
2018-05-08T15:32:33.222Z,2.47
2018-05-08T15:35:03.069Z,2.40
2018-05-08T15:37:32.888Z,2.40
2018-05-08T15:40:01.993Z,2.37
2018-05-08T15:42:30.838Z,2.50
2018-05-08T15:44:59.718Z,2.33
2018-05-08T15:47:28.619Z,2.62
2018-05-08T15:49:58.224Z,2.42
2018-05-08T15:52:27.090Z,2.90
2018-05-08T15:54:55.950Z,2.30
2018-05-08T15:57:24.794Z,2.60
2018-05-08T15:59:53.718Z,2.65
2018-05-08T16:02:22.717Z,2.40
2018-05-08T16:04:51.624Z,2.60
2018-05-08T16:07:20.495Z,2.50
2018-05-08T16:09:50.699Z,2.37
2018-05-08T16:12:19.741Z,2.35
2018-05-08T16:14:48.655Z,2.25
2018-05-08T16:17:17.506Z,2.90
2018-05-08T16:19:46.381Z,2.55
2018-05-08T16:22:15.256Z,2.80
2018-05-08T16:24:46.471Z,2.58
2018-05-08T16:27:15.335Z,2.37
2018-05-08T16:29:44.197Z,2.58
2018-05-08T16:32:13.055Z,2.20
2018-05-08T16:34:41.920Z,2.70
2018-05-08T16:37:10.764Z,2.50
2018-05-08T16:39:39.649Z,2.50
2018-05-08T16:42:08.491Z,2.40
2018-05-08T16:44:37.555Z,2.45
2018-05-08T16:47:06.422Z,2.53
2018-05-08T16:49:35.309Z,2.60
2018-05-08T16:52:04.181Z,2.62
2018-05-08T16:54:33.060Z,2.47
2018-05-08T16:57:01.915Z,2.40
2018-05-08T16:59:30.778Z,2.67
2018-05-08T17:01:59.671Z,2.50
2018-05-08T17:04:28.522Z,2.60
2018-05-08T17:06:58.330Z,2.50
2018-05-08T17:09:27.170Z,2.60
2018-05-08T17:11:56.034Z,2.97
2018-05-08T17:14:24.942Z,2.78
2018-05-08T17:16:53.778Z,2.80
2018-05-08T17:19:22.672Z,2.62
2018-05-08T17:21:51.538Z,2.90
2018-05-08T17:24:20.400Z,2.97
2018-05-08T17:26:49.277Z,2.90
2018-05-08T17:29:18.251Z,2.40
2018-05-08T17:31:47.133Z,2.70
2018-05-08T17:34:15.975Z,2.72
2018-05-08T17:36:45.253Z,2.75
2018-05-08T17:39:14.106Z,2.85
2018-05-08T17:41:42.960Z,2.70
2018-05-08T17:44:11.823Z,3.17
2018-05-08T17:46:40.686Z,2.62
2018-05-08T17:49:09.633Z,2.80
2018-05-08T17:51:38.544Z,2.60
2018-05-08T17:54:07.415Z,2.95
2018-05-08T17:56:36.302Z,2.90
2018-05-08T17:59:05.152Z,2.70
2018-05-08T18:01:34.000Z,2.80
2018-05-08T18:04:02.927Z,2.67
2018-05-08T18:06:31.771Z,2.70
2018-05-08T18:09:00.670Z,2.78
2018-05-08T18:11:29.596Z,2.90
2018-05-08T18:13:58.998Z,2.90
2018-05-08T18:16:27.859Z,3.03
2018-05-08T18:18:56.742Z,3.25
2018-05-08T18:21:25.580Z,3.08
2018-05-08T18:23:54.442Z,2.90
2018-05-08T18:26:23.287Z,3.30
2018-05-08T18:28:52.125Z,3.17
2018-05-08T18:31:20.990Z,3.83
2018-05-08T18:33:49.842Z,3.85
2018-05-08T18:36:19.685Z,3.35
2018-05-08T18:38:48.563Z,2.92
2018-05-08T18:41:17.732Z,3.72
2018-05-08T18:43:46.572Z,4.43
2018-05-08T18:46:17.067Z,3.60
2018-05-08T18:48:47.743Z,4.30
2018-05-08T18:51:16.639Z,4.10
2018-05-08T18:53:45.509Z,3.67
2018-05-08T18:56:14.366Z,3.80
2018-05-08T18:58:43.215Z,4.10
2018-05-08T19:01:12.103Z,3.83
2018-05-08T19:03:41.059Z,4.47
2018-05-08T19:06:09.833Z,4.65
2018-05-08T19:08:38.749Z,4.20
2018-05-08T19:11:13.337Z,4.70
2018-05-08T19:13:42.268Z,4.40
2018-05-08T19:16:11.117Z,4.78
2018-05-08T19:18:45.707Z,4.95
2018-05-08T19:21:14.571Z,5.50
2018-05-08T19:23:49.383Z,5.22
2018-05-08T19:26:18.765Z,5.68
2018-05-08T19:28:53.493Z,4.72
2018-05-08T19:31:22.339Z,4.83
2018-05-08T19:33:51.216Z,5.37
2018-05-08T19:36:25.933Z,5.27
2018-05-08T19:38:54.773Z,4.80
2018-05-08T19:41:23.612Z,4.20
2018-05-08T19:43:52.476Z,4.67
2018-05-08T19:46:21.365Z,4.60
2018-05-08T19:48:50.222Z,4.33
2018-05-08T19:51:19.886Z,5.53
2018-05-08T19:53:48.731Z,5.83
2018-05-08T19:56:17.578Z,5.30
2018-05-08T19:58:46.480Z,5.17
2018-05-08T20:01:15.370Z,4.97
2018-05-08T20:03:44.224Z,5.20
2018-05-08T20:06:13.132Z,5.40
2018-05-08T20:08:42.028Z,5.83
2018-05-08T20:11:10.852Z,6.13
2018-05-08T20:13:39.854Z,6.90
2018-05-08T20:16:08.717Z,9.13
2018-05-08T20:18:37.992Z,7.73
2018-05-08T20:21:06.856Z,8.80
2018-05-08T20:23:35.725Z,7.87
2018-05-08T20:26:04.592Z,9.70
2018-05-08T20:28:34.754Z,10.10
2018-05-08T20:31:03.608Z,10.37
2018-05-08T20:33:32.476Z,8.90
2018-05-08T20:36:01.320Z,8.50
2018-05-08T20:38:30.181Z,8.53
2018-05-08T20:40:59.040Z,9.07
2018-05-08T20:43:27.918Z,7.60
2018-05-08T20:45:56.797Z,8.03
2018-05-08T20:48:27.384Z,7.90
2018-05-08T20:50:56.276Z,9.00
2018-05-08T20:53:25.142Z,8.97
2018-05-08T20:55:54.014Z,9.20
2018-05-08T20:58:22.883Z,8.03
2018-05-08T21:00:51.756Z,8.87
2018-05-08T21:03:20.602Z,8.10
2018-05-08T21:05:49.514Z,8.23
2018-05-08T21:08:18.379Z,8.50
2018-05-08T21:10:47.238Z,7.20
2018-05-08T21:13:16.919Z,7.53
2018-05-08T21:15:45.788Z,7.07
2018-05-08T21:18:14.693Z,7.03
2018-05-08T21:20:43.610Z,7.13
2018-05-08T21:23:12.491Z,6.77
2018-05-08T21:25:41.359Z,8.27
2018-05-08T21:28:15.891Z,9.77
2018-05-08T21:31:01.584Z,9.13
2018-05-08T21:33:30.468Z,10.83
2018-05-08T21:36:00.343Z,10.30
2018-05-08T21:38:30.456Z,8.50
2018-05-08T21:41:03.396Z,9.57
2018-05-08T21:43:35.538Z,9.80
2018-05-08T21:46:05.262Z,9.07
2018-05-08T21:48:36.070Z,9.90
2018-05-08T21:51:07.802Z,10.63
2018-05-08T21:56:24.088Z,10.80
2018-05-08T21:58:53.362Z,11.30
2018-05-08T22:01:27.509Z,11.20
2018-05-08T22:03:57.686Z,13.93
2018-05-08T22:06:28.858Z,13.77
2018-05-08T22:08:59.506Z,12.73
2018-05-08T22:11:28.538Z,12.57
2018-05-08T22:13:58.218Z,11.93
2018-05-08T22:16:27.160Z,10.87
2018-05-08T22:18:56.016Z,13.27
2018-05-08T22:21:24.888Z,16.23
2018-05-08T22:23:53.790Z,12.40
2018-05-08T22:26:24.127Z,13.40
2018-05-08T22:28:52.982Z,12.40
2018-05-08T22:31:21.858Z,13.37
2018-05-08T22:33:50.694Z,13.17
2018-05-08T22:36:19.552Z,13.13
2018-05-08T22:38:49.158Z,13.73
2018-05-08T22:41:18.013Z,14.00
2018-05-08T22:43:46.892Z,14.07
2018-05-08T22:46:15.781Z,13.90
2018-05-08T22:48:45.182Z,14.77
2018-05-08T22:51:14.048Z,14.80
2018-05-08T22:53:42.954Z,16.10
2018-05-08T22:56:11.851Z,15.67
2018-05-08T22:58:41.542Z,14.00
2018-05-08T23:01:10.554Z,14.40
2018-05-08T23:03:39.391Z,16.10
2018-05-08T23:06:08.230Z,15.93
2018-05-08T23:08:37.086Z,15.67
2018-05-08T23:11:06.218Z,15.20
2018-05-08T23:13:35.080Z,15.33
2018-05-08T23:16:03.947Z,16.87
2018-05-08T23:18:33.193Z,16.87
2018-05-08T23:21:02.106Z,16.40
2018-05-08T23:23:31.953Z,16.63
2018-05-08T23:26:00.833Z,15.50
2018-05-08T23:28:29.771Z,14.63
2018-05-08T23:30:58.835Z,16.13
2018-05-08T23:33:27.700Z,14.07
2018-05-08T23:35:57.597Z,15.43
2018-05-08T23:38:27.102Z,17.63
2018-05-08T23:40:56.183Z,15.83
2018-05-08T23:43:25.033Z,15.93
2018-05-08T23:45:54.243Z,16.43
2018-05-08T23:48:23.105Z,19.37
2018-05-08T23:50:52.097Z,16.40
2018-05-08T23:53:20.949Z,18.13
2018-05-08T23:55:49.827Z,17.13
2018-05-08T23:58:19.467Z,17.53
